Time;durP1;ratioP1;P1;durP2;ratioP2;P2;SDS_P1;SDS_P2;PMS_P1;PMS_P2;Temp;Humidity;BMP_temperature;BMP_pressure;BME280_temperature;BME280_humidity;BME280_pressure;Samples;Min_cycle;Max_cycle;Signal;HPM_P1;HPM_P2
2021/06/24 00:01:57;;;;;;;21.73;5.88;;;;;;;25.63;51.80;94988.44;2967417;39;20413;-72
2021/06/24 00:03:58;;;;;;;21.23;5.28;;;;;;;25.59;51.43;94989.97;2969258;40;20141;-72
2021/06/24 00:06:02;;;;;;;24.08;5.57;;;;;;;25.53;51.75;94989.06;2973577;39;20048;-72
2021/06/24 00:08:04;;;;;;;23.35;5.50;;;;;;;25.54;52.37;94988.84;2971713;39;20126;-71
2021/06/24 00:10:06;;;;;;;19.10;6.75;;;;;;;25.48;52.34;94992.50;2975247;39;20060;-73
2021/06/24 00:12:09;;;;;;;19.60;5.38;;;;;;;25.48;52.09;94997.06;2975601;40;20059;-72
2021/06/24 00:14:10;;;;;;;21.67;5.97;;;;;;;25.47;52.09;94998.94;2975415;39;20076;-71
2021/06/24 00:16:12;;;;;;;18.65;6.22;;;;;;;25.48;52.11;94999.75;2974325;39;20140;-73
2021/06/24 00:18:14;;;;;;;17.67;5.43;;;;;;;25.51;51.99;94997.38;2967884;39;20164;-71
2021/06/24 00:20:16;;;;;;;23.40;5.93;;;;;;;25.53;52.40;94994.44;2973103;39;20391;-72
2021/06/24 00:22:18;;;;;;;22.77;5.90;;;;;;;25.52;52.78;94998.19;2973223;39;20051;-71
2021/06/24 00:24:20;;;;;;;16.25;6.43;;;;;;;25.53;53.09;95002.47;2973034;39;20071;-73
2021/06/24 00:26:22;;;;;;;20.80;7.53;;;;;;;25.53;53.46;95002.47;2968893;39;20101;-72
2021/06/24 00:28:27;;;;;;;19.50;5.80;;;;;;;25.54;53.61;94998.75;2973115;39;20040;-72
2021/06/24 00:30:31;;;;;;;18.88;6.53;;;;;;;25.52;53.66;95007.03;2971057;40;20052;-72
2021/06/24 00:32:32;;;;;;;15.88;6.35;;;;;;;25.50;53.91;95008.34;2970545;39;20064;-72
2021/06/24 00:34:35;;;;;;;19.52;6.90;;;;;;;25.48;54.13;95013.16;2972079;39;20151;-72
2021/06/24 00:36:36;;;;;;;20.33;7.40;;;;;;;25.45;54.29;95019.00;2973468;39;20063;-71
2021/06/24 00:38:38;;;;;;;19.83;6.90;;;;;;;25.43;54.74;95015.75;2972431;40;20056;-72
2021/06/24 00:40:41;;;;;;;12.25;5.45;;;;;;;25.35;55.22;95014.28;2968564;40;20075;-72
2021/06/24 00:42:44;;;;;;;17.40;6.35;;;;;;;25.34;54.99;95018.03;2968524;40;20444;-73
2021/06/24 00:44:46;;;;;;;17.63;5.72;;;;;;;25.27;55.22;95012.81;2972183;40;20494;-74
2021/06/24 00:46:51;;;;;;;19.83;6.13;;;;;;;25.21;55.57;95013.81;2965506;39;20039;-73
2021/06/24 00:48:58;;;;;;;22.27;6.05;;;;;;;25.17;55.56;95017.16;2966694;39;20645;-72
2021/06/24 00:51:00;;;;;;;17.95;6.20;;;;;;;25.16;55.42;95013.66;2966169;39;20428;-72
2021/06/24 00:53:02;;;;;;;23.13;6.22;;;;;;;25.12;55.92;95017.88;2970088;39;20056;-73
2021/06/24 00:55:05;;;;;;;22.80;7.00;;;;;;;25.10;55.83;95018.16;2962638;40;20395;-72
2021/06/24 00:57:07;;;;;;;16.70;6.85;;;;;;;25.08;55.65;95019.44;2971763;40;20109;-71
2021/06/24 00:59:09;;;;;;;16.88;7.32;;;;;;;25.05;55.96;95020.72;2963714;40;20392;-72
2021/06/24 01:01:10;;;;;;;18.23;6.28;;;;;;;25.04;55.90;95023.66;2967914;39;20070;-72
2021/06/24 01:03:13;;;;;;;18.85;6.78;;;;;;;24.99;56.06;95015.53;2970080;40;20060;-71
2021/06/24 01:05:15;;;;;;;23.95;6.18;;;;;;;24.98;56.06;95022.75;2966634;39;20078;-72
2021/06/24 01:07:17;;;;;;;15.52;6.75;;;;;;;24.99;56.11;95020.88;2968679;40;20056;-71
2021/06/24 01:09:19;;;;;;;18.50;6.82;;;;;;;24.98;55.98;95021.94;2971319;39;20358;-71
2021/06/24 01:11:21;;;;;;;20.10;5.85;;;;;;;24.93;56.32;95028.03;2960358;40;20060;-72
2021/06/24 01:13:23;;;;;;;17.80;6.13;;;;;;;24.88;56.72;95038.66;2967832;39;20071;-71
2021/06/24 01:15:25;;;;;;;18.27;6.30;;;;;;;24.87;56.82;95034.34;2965939;40;20092;-71
2021/06/24 01:17:26;;;;;;;17.45;6.65;;;;;;;24.87;56.65;95027.13;2969604;40;20141;-72
2021/06/24 01:19:28;;;;;;;16.85;6.18;;;;;;;24.85;56.49;95023.88;2967583;39;20141;-73
2021/06/24 01:21:30;;;;;;;17.65;6.30;;;;;;;24.87;56.76;95023.63;2966845;39;20076;-72
2021/06/24 01:23:40;;;;;;;20.02;7.10;;;;;;;24.88;56.47;95023.38;2966953;39;20060;-72
2021/06/24 01:25:42;;;;;;;17.98;6.00;;;;;;;24.89;56.43;95021.53;2966530;40;20089;-72
2021/06/24 01:27:44;;;;;;;13.75;6.22;;;;;;;24.91;56.41;95022.09;2969701;39;20052;-73
2021/06/24 01:29:46;;;;;;;15.80;6.32;;;;;;;24.91;56.88;95022.91;2967888;39;20170;-72
2021/06/24 01:31:47;;;;;;;20.55;6.63;;;;;;;24.87;56.88;95021.75;2972243;39;20355;-72
2021/06/24 01:34:13;;;;;;;19.77;6.85;;;;;;;24.80;57.28;95023.78;2973266;40;20047;-71
2021/06/24 01:36:15;;;;;;;15.95;7.00;;;;;;;24.73;57.20;95026.59;2974772;40;20490;-73
2021/06/24 01:38:17;;;;;;;20.17;6.47;;;;;;;24.40;58.47;95024.59;2966148;40;20075;-71
2021/06/24 01:40:19;;;;;;;18.52;7.55;;;;;;;24.21;59.24;95026.63;2974501;39;20072;-71
2021/06/24 01:42:21;;;;;;;15.00;6.72;;;;;;;24.20;59.33;95025.00;2974999;40;20103;-73
2021/06/24 01:44:30;;;;;;;16.48;6.53;;;;;;;24.15;59.22;95024.06;2974425;39;20067;-72
2021/06/24 01:46:32;;;;;;;22.95;6.90;;;;;;;24.15;59.63;95024.06;2980139;39;20080;-72
2021/06/24 01:48:34;;;;;;;18.40;6.35;;;;;;;24.19;59.62;95030.59;2970884;39;20055;-73
2021/06/24 01:50:36;;;;;;;14.00;6.57;;;;;;;24.23;59.69;95024.50;2974871;40;20125;-72
2021/06/24 01:52:44;;;;;;;16.65;7.85;;;;;;;24.28;59.48;95023.81;2974396;39;20302;-72
2021/06/24 01:54:47;;;;;;;19.45;7.15;;;;;;;24.36;58.94;95028.00;2971768;39;20140;-72
2021/06/24 01:56:50;;;;;;;17.00;6.32;;;;;;;24.42;59.23;95027.84;2971229;40;20341;-72
2021/06/24 01:58:51;;;;;;;22.45;7.50;;;;;;;24.41;59.29;95018.16;2979708;39;20456;-72
2021/06/24 02:00:56;;;;;;;22.70;7.43;;;;;;;24.44;58.88;95019.59;2972014;39;20064;-73
2021/06/24 02:02:58;;;;;;;14.43;6.57;;;;;;;24.48;58.62;95016.22;2973306;39;20133;-73
2021/06/24 02:05:00;;;;;;;25.13;7.63;;;;;;;24.49;58.79;95017.84;2966487;40;20082;-72
2021/06/24 02:07:02;;;;;;;13.98;5.85;;;;;;;24.51;58.81;95018.41;2975214;39;20052;-82
2021/06/24 02:09:04;;;;;;;19.67;6.95;;;;;;;24.49;59.06;95017.84;2975990;39;20250;-80
2021/06/24 02:11:06;;;;;;;14.07;6.23;;;;;;;24.49;58.97;95012.47;2974270;40;20084;-81
2021/06/24 02:13:08;;;;;;;15.68;6.35;;;;;;;24.47;58.92;95011.06;2976771;39;21051;-81
2021/06/24 02:15:12;;;;;;;20.42;6.88;;;;;;;24.43;58.96;95007.22;2975314;39;20044;-82
2021/06/24 02:17:14;;;;;;;18.10;6.40;;;;;;;24.39;59.01;95009.56;2974668;40;20136;-82
2021/06/24 02:19:16;;;;;;;17.50;7.43;;;;;;;24.40;59.08;95005.84;2972967;39;20067;-81
2021/06/24 02:21:17;;;;;;;20.02;6.47;;;;;;;24.40;58.66;95003.16;2972408;39;20103;-72
2021/06/24 02:23:19;;;;;;;17.40;7.13;;;;;;;24.39;58.63;94995.38;2975409;39;20729;-72
2021/06/24 02:25:21;;;;;;;18.58;6.57;;;;;;;24.41;58.52;95001.31;2966205;39;20057;-72
2021/06/24 02:27:23;;;;;;;20.10;6.35;;;;;;;24.41;58.70;95002.09;2980687;39;20125;-72
2021/06/24 02:29:24;;;;;;;19.95;7.22;;;;;;;24.40;58.68;94991.66;2971452;39;20068;-72
2021/06/24 02:31:27;;;;;;;18.30;6.28;;;;;;;24.39;58.61;94995.38;2975285;39;20052;-73
2021/06/24 02:33:31;;;;;;;17.95;7.32;;;;;;;24.38;58.78;94997.25;2972677;39;20131;-71
2021/06/24 02:35:35;;;;;;;21.98;6.93;;;;;;;24.33;59.05;94994.47;2971937;39;20082;-72
2021/06/24 02:37:36;;;;;;;21.55;7.65;;;;;;;24.33;58.62;94992.59;2980842;39;20063;-72
2021/06/24 02:39:38;;;;;;;20.98;6.60;;;;;;;24.26;59.02;94991.94;2969978;39;20088;-81
2021/06/24 02:41:40;;;;;;;24.67;8.52;;;;;;;23.98;60.27;94987.31;2974546;39;20396;-81
2021/06/24 02:43:42;;;;;;;20.73;7.85;;;;;;;23.80;60.67;94985.63;2975653;39;20103;-81
2021/06/24 02:45:44;;;;;;;17.42;6.85;;;;;;;23.81;60.94;94989.09;2967214;40;20188;-81
2021/06/24 02:47:46;;;;;;;19.08;7.00;;;;;;;23.83;60.96;94989.69;2974789;39;20421;-83
2021/06/24 02:49:48;;;;;;;24.90;7.35;;;;;;;23.67;61.43;94989.31;2971737;39;20059;-80
2021/06/24 02:51:50;;;;;;;16.52;6.55;;;;;;;23.65;61.30;94990.59;2980109;39;20136;-81
2021/06/24 02:53:51;;;;;;;18.83;8.05;;;;;;;23.71;61.34;94990.47;2974889;39;20067;-80
2021/06/24 02:55:53;;;;;;;25.27;7.32;;;;;;;23.31;62.96;94991.16;2968829;40;20059;-81
2021/06/24 02:57:55;;;;;;;23.05;8.55;;;;;;;23.22;62.96;94994.44;2975810;39;20050;-81
2021/06/24 02:59:57;;;;;;;19.92;6.85;;;;;;;23.16;62.89;94996.16;2972610;39;20056;-81
2021/06/24 03:01:58;;;;;;;21.88;7.50;;;;;;;23.24;62.58;95001.16;2972120;39;20067;-82
2021/06/24 03:04:00;;;;;;;19.50;7.32;;;;;;;23.17;62.99;95005.81;2976386;40;20063;-72
2021/06/24 03:06:02;;;;;;;29.05;7.40;;;;;;;23.09;62.89;95011.47;2974111;39;20360;-72
2021/06/24 03:08:04;;;;;;;21.88;7.07;;;;;;;23.07;62.69;95010.91;2973318;39;20063;-72
2021/06/24 03:10:07;;;;;;;23.48;7.28;;;;;;;23.09;62.49;95016.81;2973231;39;20065;-72
2021/06/24 03:12:09;;;;;;;23.38;7.20;;;;;;;22.58;64.28;95015.47;2972758;39;20052;-70
2021/06/24 03:14:11;;;;;;;23.73;9.15;;;;;;;22.40;65.98;95011.81;2974264;39;20052;-73
2021/06/24 03:16:13;;;;;;;24.63;9.30;;;;;;;22.14;67.05;95012.09;2974379;39;20458;-72
2021/06/24 03:18:15;;;;;;;19.33;8.45;;;;;;;22.36;66.17;95007.16;2974833;39;20172;-71
2021/06/24 03:20:17;;;;;;;24.05;8.80;;;;;;;22.61;65.44;95002.50;2972904;40;20055;-72
2021/06/24 03:22:18;;;;;;;21.67;9.30;;;;;;;22.65;65.79;95008.19;2972526;39;20055;-71
2021/06/24 03:24:20;;;;;;;25.80;10.98;;;;;;;22.34;67.01;95014.56;2975124;39;20401;-81
2021/06/24 03:26:22;;;;;;;22.88;10.82;;;;;;;22.22;67.28;95007.31;2975341;39;20084;-81
2021/06/24 03:28:24;;;;;;;26.15;9.88;;;;;;;22.25;67.13;95003.38;2975793;39;20136;-81
2021/06/24 03:30:25;;;;;;;22.67;9.73;;;;;;;22.23;67.20;94998.25;2974040;39;20504;-81
2021/06/24 03:32:28;;;;;;;20.05;8.93;;;;;;;22.31;66.85;95004.34;2975740;39;20052;-80
2021/06/24 03:34:30;;;;;;;31.27;9.75;;;;;;;22.42;66.68;95015.06;2976260;40;20079;-82
2021/06/24 03:36:31;;;;;;;19.45;8.85;;;;;;;22.48;66.33;95003.50;2975411;39;20469;-83
2021/06/24 03:38:33;;;;;;;28.42;8.85;;;;;;;22.68;65.82;95002.41;2977196;39;20054;-82
2021/06/24 03:40:35;;;;;;;27.02;10.52;;;;;;;22.78;65.49;95005.34;2971547;39;20064;-82
2021/06/24 03:42:37;;;;;;;22.70;8.35;;;;;;;22.87;65.33;95013.84;2964971;39;20095;-84
2021/06/24 03:44:39;;;;;;;25.17;9.13;;;;;;;22.64;66.02;95014.56;2981322;39;20052;-74
2021/06/24 03:46:40;;;;;;;20.17;8.38;;;;;;;22.55;66.24;95021.28;2969501;39;20149;-73
2021/06/24 03:48:43;;;;;;;24.40;8.70;;;;;;;22.45;67.16;95027.94;2973041;39;20063;-72
2021/06/24 03:50:45;;;;;;;22.73;8.20;;;;;;;22.59;66.38;95019.78;2968674;40;20060;-73
2021/06/24 03:52:47;;;;;;;25.75;8.15;;;;;;;22.76;65.78;95019.94;2973652;39;20123;-71
2021/06/24 03:54:49;;;;;;;20.95;8.65;;;;;;;23.01;65.33;95019.81;2975060;39;20494;-73
2021/06/24 03:56:51;;;;;;;18.35;7.93;;;;;;;23.18;64.60;95018.13;2974801;39;20286;-74
2021/06/24 03:58:52;;;;;;;19.75;8.63;;;;;;;23.31;64.21;95025.91;2974496;39;20076;-71
2021/06/24 04:00:54;;;;;;;16.20;7.82;;;;;;;23.49;63.72;95025.03;2974485;40;20056;-72
2021/06/24 04:02:56;;;;;;;23.48;7.50;;;;;;;23.66;63.12;95030.50;2973401;39;20052;-71
2021/06/24 04:04:58;;;;;;;30.83;8.65;;;;;;;23.81;62.77;95016.69;2973878;39;20338;-72
2021/06/24 04:06:59;;;;;;;17.63;7.63;;;;;;;23.91;62.29;95024.09;2969971;39;20204;-72
2021/06/24 04:09:01;;;;;;;21.90;7.93;;;;;;;24.03;61.72;95014.22;2963606;40;20060;-73
2021/06/24 04:11:04;;;;;;;17.70;8.35;;;;;;;24.05;61.47;95017.47;2973586;39;20056;-72
2021/06/24 04:13:10;;;;;;;22.45;8.07;;;;;;;24.04;60.82;95015.81;2970923;39;20080;-72
2021/06/24 04:15:12;;;;;;;27.23;8.60;;;;;;;24.09;60.95;95028.50;2972561;39;20059;-73
2021/06/24 04:17:15;;;;;;;21.05;7.72;;;;;;;24.17;60.40;95022.78;2972244;39;20071;-72
2021/06/24 04:19:17;;;;;;;19.65;8.15;;;;;;;24.25;60.35;95017.06;2970887;39;20059;-72
2021/06/24 04:21:19;;;;;;;26.90;8.43;;;;;;;24.35;59.89;95021.81;2974667;39;20425;-74
2021/06/24 04:23:20;;;;;;;20.13;8.52;;;;;;;24.43;59.74;95023.31;2972225;39;20347;-72
2021/06/24 04:25:22;;;;;;;22.85;8.70;;;;;;;24.49;59.46;95022.38;2971858;39;20115;-75
2021/06/24 04:27:25;;;;;;;26.75;9.35;;;;;;;24.59;59.32;95024.47;2973320;39;20048;-75
2021/06/24 04:29:27;;;;;;;17.58;8.45;;;;;;;24.65;59.16;95026.16;2970886;39;20067;-72
2021/06/24 04:31:29;;;;;;;20.88;8.68;;;;;;;24.70;58.80;95023.59;2971146;39;20036;-72
2021/06/24 04:33:31;;;;;;;21.58;8.50;;;;;;;24.76;58.55;95022.63;2971193;39;20093;-73
2021/06/24 04:35:32;;;;;;;21.55;8.50;;;;;;;24.71;58.68;95027.88;2974348;39;20144;-71
2021/06/24 04:37:34;;;;;;;24.33;8.98;;;;;;;24.68;59.16;95021.16;2970255;40;20282;-72
2021/06/24 04:39:36;;;;;;;24.95;8.15;;;;;;;24.66;59.48;95020.56;2965200;40;20056;-72
2021/06/24 04:41:48;;;;;;;21.30;8.77;;;;;;;24.72;59.35;95005.41;2972542;39;20068;-72
2021/06/24 04:43:50;;;;;;;20.48;8.43;;;;;;;24.84;59.08;95008.03;2970260;39;20060;-73
2021/06/24 04:45:52;;;;;;;21.98;9.00;;;;;;;24.94;58.86;95016.25;2974485;39;20062;-72
2021/06/24 04:47:54;;;;;;;26.20;8.68;;;;;;;24.98;58.74;95019.28;2976184;40;20075;-73
2021/06/24 04:49:55;;;;;;;20.00;9.45;;;;;;;25.05;58.63;95019.91;2975112;39;20104;-74
2021/06/24 04:51:57;;;;;;;19.48;9.27;;;;;;;25.01;58.64;95013.41;2976382;39;20075;-73
2021/06/24 04:53:59;;;;;;;28.40;10.13;;;;;;;25.05;58.84;95018.03;2970565;39;20133;-72
2021/06/24 04:56:01;;;;;;;17.48;9.85;;;;;;;25.11;58.71;95021.63;2966072;40;20064;-73
2021/06/24 04:58:02;;;;;;;24.02;8.60;;;;;;;25.15;58.55;95020.09;2975734;39;20120;-73
2021/06/24 05:00:05;;;;;;;24.27;8.82;;;;;;;25.21;58.35;95018.34;2975160;40;20068;-83
2021/06/24 05:02:07;;;;;;;26.33;9.87;;;;;;;25.29;58.10;95021.44;2977858;39;20047;-83
2021/06/24 05:04:09;;;;;;;23.58;8.88;;;;;;;25.34;57.94;95018.84;2978913;39;20370;-81
2021/06/24 05:06:11;;;;;;;23.40;9.98;;;;;;;25.40;57.62;95018.91;2979986;39;20208;-82
2021/06/24 05:08:18;;;;;;;24.13;9.23;;;;;;;25.36;57.76;95018.59;2972049;40;20378;-81
2021/06/24 05:10:21;;;;;;;23.35;10.27;;;;;;;25.43;57.65;95013.88;2977492;40;20187;-81
2021/06/24 05:12:23;;;;;;;34.83;10.30;;;;;;;25.50;57.34;95008.34;2973962;39;20438;-73
2021/06/24 05:14:24;;;;;;;25.98;9.73;;;;;;;25.61;57.21;95014.69;2975680;39;20048;-75
2021/06/24 05:16:26;;;;;;;22.38;9.20;;;;;;;25.67;56.84;95009.16;2973918;39;20052;-72
2021/06/24 05:18:28;;;;;;;56.42;14.35;;;;;;;25.73;56.31;95010.84;2968928;39;20071;-73
2021/06/24 05:20:30;;;;;;;84.75;20.05;;;;;;;25.79;56.46;95017.13;2974306;40;20136;-73
2021/06/24 05:22:32;;;;;;;35.78;11.25;;;;;;;25.82;56.15;95023.84;2974014;39;20060;-74
2021/06/24 05:24:34;;;;;;;98.82;19.48;;;;;;;25.83;56.22;95025.47;2975312;40;20055;-73
2021/06/24 05:26:36;;;;;;;45.20;12.02;;;;;;;25.49;57.20;95034.38;2974158;39;20047;-71
2021/06/24 05:28:38;;;;;;;47.28;12.32;;;;;;;25.20;57.85;95033.63;2974216;39;20094;-73
2021/06/24 05:30:39;;;;;;;27.40;9.75;;;;;;;25.11;58.20;95027.00;2974745;39;20469;-72
2021/06/24 05:32:41;;;;;;;35.13;11.82;;;;;;;25.11;58.39;95027.81;2973132;40;20149;-72
2021/06/24 05:34:43;;;;;;;31.45;9.60;;;;;;;24.75;58.97;95018.31;2972929;39;20068;-73
2021/06/24 05:36:45;;;;;;;29.17;10.70;;;;;;;24.41;59.89;95020.84;2973649;39;20571;-76
2021/06/24 05:38:47;;;;;;;37.03;10.05;;;;;;;24.49;59.47;95017.03;2971219;39;20137;-73
2021/06/24 05:40:50;;;;;;;29.98;10.52;;;;;;;24.46;59.54;95018.28;2973013;39;20065;-72
2021/06/24 05:42:51;;;;;;;27.80;10.82;;;;;;;24.62;59.23;95015.94;2973173;39;20392;-73
2021/06/24 05:44:53;;;;;;;49.80;11.65;;;;;;;24.89;58.96;95016.16;2967990;39;20113;-74
2021/06/24 05:46:55;;;;;;;48.70;23.38;;;;;;;25.08;58.69;95019.44;2971297;39;20060;-74
2021/06/24 05:48:57;;;;;;;47.80;18.73;;;;;;;25.30;58.09;95020.38;2976238;39;20055;-73
2021/06/24 05:50:59;;;;;;;45.42;17.52;;;;;;;25.54;57.17;95021.03;2974859;39;20048;-73
2021/06/24 05:53:01;;;;;;;32.75;11.45;;;;;;;25.73;56.27;95020.78;2974126;39;20064;-72
2021/06/24 05:55:05;;;;;;;27.35;10.05;;;;;;;25.87;55.83;95021.22;2974302;39;20092;-73
2021/06/24 05:57:06;;;;;;;23.30;9.25;;;;;;;26.03;55.09;95022.28;2975176;39;20071;-73
2021/06/24 05:59:09;;;;;;;40.65;11.48;;;;;;;26.17;54.92;95017.38;2975277;39;20055;-72
2021/06/24 06:01:11;;;;;;;63.05;13.43;;;;;;;26.32;54.32;95023.72;2972551;39;20088;-72
2021/06/24 06:03:13;;;;;;;34.78;11.95;;;;;;;26.41;54.21;95018.72;2972611;39;20048;-73
2021/06/24 06:05:15;;;;;;;30.88;10.30;;;;;;;26.55;53.87;95011.91;2973995;39;20136;-74
2021/06/24 06:07:16;;;;;;;26.15;9.63;;;;;;;26.68;53.53;95023.38;2971561;39;20649;-74
2021/06/24 06:09:18;;;;;;;33.78;10.10;;;;;;;26.77;53.40;95013.78;2972355;40;20145;-73
2021/06/24 06:11:20;;;;;;;28.95;9.68;;;;;;;26.37;54.05;95017.59;2971930;39;20055;-74
2021/06/24 06:13:22;;;;;;;31.35;11.65;;;;;;;26.34;54.14;95012.75;2972658;39;20044;-74
2021/06/24 06:15:23;;;;;;;31.38;9.68;;;;;;;26.40;54.36;95019.81;2973622;39;20081;-73
2021/06/24 06:17:26;;;;;;;28.50;10.20;;;;;;;26.50;54.28;95029.84;2973927;39;20368;-73
2021/06/24 06:19:27;;;;;;;27.77;8.63;;;;;;;26.45;54.90;95030.59;2974420;39;20076;-73
2021/06/24 06:21:30;;;;;;;30.98;10.00;;;;;;;26.59;54.51;95017.66;2974578;39;20048;-85
2021/06/24 06:23:33;;;;;;;25.77;10.98;;;;;;;26.76;53.79;95017.56;2976243;39;20140;-83
2021/06/24 06:25:35;;;;;;;30.00;12.13;;;;;;;26.83;53.03;95014.69;2977479;39;20349;-85
2021/06/24 06:27:37;;;;;;;27.85;9.20;;;;;;;26.85;53.24;95015.22;2977020;40;20043;-85
2021/06/24 06:29:38;;;;;;;29.58;8.70;;;;;;;26.75;52.73;95021.31;2975917;39;20067;-85
2021/06/24 06:31:40;;;;;;;25.08;8.52;;;;;;;26.74;53.63;95014.31;2975959;39;20448;-84
2021/06/24 06:33:42;;;;;;;26.70;8.85;;;;;;;26.84;53.26;95018.97;2976287;39;20149;-83
2021/06/24 06:35:44;;;;;;;30.55;9.00;;;;;;;26.83;52.87;95023.53;2975244;40;20067;-81
2021/06/24 06:37:46;;;;;;;17.17;9.13;;;;;;;26.62;53.52;95021.69;2973177;39;20064;-83
2021/06/24 06:39:48;;;;;;;22.08;9.45;;;;;;;26.74;53.20;95020.50;2973275;39;20137;-83
2021/06/24 06:41:50;;;;;;;28.20;9.18;;;;;;;26.69;53.74;95016.94;2975215;39;20052;-86
2021/06/24 06:43:52;;;;;;;25.25;9.55;;;;;;;26.63;53.40;95018.78;2971632;39;20083;-83
2021/06/24 06:45:53;;;;;;;21.77;9.30;;;;;;;26.68;53.36;95016.13;2968455;39;20208;-82
2021/06/24 06:47:55;;;;;;;27.65;8.93;;;;;;;26.82;53.62;95005.78;2969700;39;20052;-72
2021/06/24 06:49:57;;;;;;;23.80;9.23;;;;;;;27.02;52.87;95009.72;2975662;39;20124;-74
2021/06/24 06:51:59;;;;;;;23.70;8.77;;;;;;;27.26;52.14;95011.06;2975068;40;20056;-76
2021/06/24 06:54:01;;;;;;;30.48;8.80;;;;;;;27.47;51.81;95011.22;2974873;39;20048;-73
2021/06/24 06:56:03;;;;;;;25.10;9.05;;;;;;;27.68;51.24;95006.78;2973550;39;20085;-72
2021/06/24 06:58:06;;;;;;;25.55;8.30;;;;;;;27.84;51.09;95005.84;2974142;40;20059;-72
2021/06/24 07:00:09;;;;;;;21.33;9.60;;;;;;;28.01;50.55;95007.56;2973016;39;20310;-73
2021/06/24 07:02:11;;;;;;;28.02;8.88;;;;;;;27.58;50.99;95012.94;2974554;39;20063;-71
2021/06/24 07:04:13;;;;;;;29.35;10.07;;;;;;;27.62;50.74;95008.66;2972725;39;20119;-73
2021/06/24 07:06:15;;;;;;;26.27;9.13;;;;;;;27.79;50.90;95005.78;2963379;40;20147;-74
2021/06/24 07:08:16;;;;;;;30.48;8.82;;;;;;;27.78;51.13;95013.06;2974499;39;20102;-75
2021/06/24 07:10:18;;;;;;;66.22;13.00;;;;;;;27.79;50.76;95005.78;2972970;39;20518;-74
2021/06/24 07:12:20;;;;;;;29.92;8.43;;;;;;;27.91;50.96;95011.81;2973562;39;20444;-73
2021/06/24 07:14:22;;;;;;;25.98;9.05;;;;;;;28.06;50.90;95013.78;2973669;39;20156;-75
2021/06/24 07:16:25;;;;;;;25.90;9.93;;;;;;;27.85;51.20;95012.88;2972388;39;20073;-73
2021/06/24 07:18:27;;;;;;;30.10;8.88;;;;;;;27.83;51.62;95008.78;2971724;39;20149;-73
2021/06/24 07:20:31;;;;;;;23.13;8.70;;;;;;;28.10;51.05;95006.81;2964461;40;20074;-74
2021/06/24 07:22:33;;;;;;;31.50;9.48;;;;;;;28.12;50.45;95009.25;2970533;39;20135;-73
2021/06/24 07:24:35;;;;;;;21.27;8.35;;;;;;;28.16;50.41;95008.47;2972783;39;20341;-74
2021/06/24 07:26:38;;;;;;;24.85;10.05;;;;;;;28.35;49.39;95014.22;2972672;39;20390;-74
2021/06/24 07:28:40;;;;;;;23.15;8.00;;;;;;;28.50;49.74;95009.97;2974479;39;20096;-74
2021/06/24 07:30:42;;;;;;;27.92;8.85;;;;;;;28.66;49.10;95008.97;2972881;39;20056;-74
2021/06/24 07:32:44;;;;;;;24.65;8.73;;;;;;;28.78;48.83;95006.00;2971832;39;20064;-73
2021/06/24 07:34:45;;;;;;;34.20;9.68;;;;;;;28.79;48.89;95011.13;2971492;39;20105;-73
2021/06/24 07:36:48;;;;;;;22.13;7.80;;;;;;;28.64;48.10;95003.03;2973019;39;20132;-73
2021/06/24 07:38:50;;;;;;;20.02;8.15;;;;;;;28.89;47.50;95004.97;2972549;40;20146;-72
2021/06/24 07:40:51;;;;;;;32.33;9.15;;;;;;;28.87;47.64;95007.13;2974917;39;20136;-73
2021/06/24 07:42:53;;;;;;;32.65;8.60;;;;;;;28.81;47.31;95013.59;2974966;39;20326;-73
2021/06/24 07:44:55;;;;;;;28.00;8.60;;;;;;;28.86;46.61;95018.16;2974797;39;20072;-74
2021/06/24 07:46:57;;;;;;;24.27;9.20;;;;;;;28.78;46.48;95008.69;2974472;40;20118;-74
2021/06/24 07:48:58;;;;;;;20.67;7.28;;;;;;;29.00;46.41;95014.69;2974914;39;20140;-72
2021/06/24 07:51:00;;;;;;;19.15;7.10;;;;;;;28.77;46.07;95017.88;2968162;39;20056;-72
2021/06/24 07:53:02;;;;;;;20.45;6.95;;;;;;;28.68;45.79;95009.50;2973648;39;20055;-73
2021/06/24 07:55:07;;;;;;;22.08;7.85;;;;;;;28.99;45.87;95006.88;2973327;39;20373;-73
2021/06/24 07:57:08;;;;;;;18.02;6.28;;;;;;;29.19;45.34;95006.94;2973635;39;20355;-74
2021/06/24 07:59:11;;;;;;;28.80;7.47;;;;;;;29.42;45.45;95015.56;2974235;39;20715;-74
2021/06/24 08:01:13;;;;;;;20.05;7.53;;;;;;;29.37;44.09;95015.56;2971734;39;20156;-74
2021/06/24 08:03:15;;;;;;;19.98;6.75;;;;;;;29.20;42.39;95010.44;2973318;39;20068;-76
2021/06/24 08:05:17;;;;;;;18.05;6.60;;;;;;;29.19;43.28;95004.22;2972508;39;20058;-74
2021/06/24 08:07:20;;;;;;;18.67;6.85;;;;;;;29.43;44.21;95011.78;2972598;39;20116;-73
2021/06/24 08:09:22;;;;;;;;;;;;;;;29.67;44.09;95000.44;2975907;39;20055;-74
2021/06/24 08:11:23;;;;;;;16.88;6.95;;;;;;;29.89;43.90;95005.56;2972736;39;19975;-82
2021/06/24 08:13:26;;;;;;;21.80;7.63;;;;;;;30.04;43.34;94997.41;2974954;39;20320;-83
2021/06/24 08:15:28;;;;;;;19.30;7.75;;;;;;;30.10;44.01;95006.34;2974367;40;20074;-82
2021/06/24 08:17:31;;;;;;;25.30;7.03;;;;;;;29.88;43.11;95009.34;2973782;39;20105;-83
2021/06/24 08:19:33;;;;;;;19.63;6.88;;;;;;;29.96;42.46;95006.88;2976349;40;20397;-83
2021/06/24 08:21:35;;;;;;;21.98;7.13;;;;;;;30.02;41.50;95007.69;2974332;39;20063;-74
2021/06/24 08:23:41;;;;;;;18.05;6.65;;;;;;;30.23;41.98;95015.75;2974275;39;20056;-84
2021/06/24 08:25:44;;;;;;;23.38;6.93;;;;;;;30.27;42.24;95020.31;2976194;39;20063;-81
2021/06/24 08:27:45;;;;;;;27.02;7.20;;;;;;;30.33;42.38;95018.44;2973434;39;20080;-82
2021/06/24 08:29:47;;;;;;;21.20;7.10;;;;;;;30.02;40.83;95015.78;2975632;39;20409;-82
2021/06/24 08:31:50;;;;;;;14.02;5.15;;;;;;;30.06;40.44;95021.47;2970978;39;20064;-81
2021/06/24 08:33:52;;;;;;;22.83;5.55;;;;;;;30.17;39.88;95025.75;2977608;39;20296;-82
2021/06/24 08:35:53;;;;;;;21.00;5.13;;;;;;;29.86;38.21;95020.44;2974578;40;20060;-83
2021/06/24 08:37:55;;;;;;;14.25;4.85;;;;;;;29.83;38.24;95015.56;2974814;39;20059;-82
2021/06/24 08:40:15;;;;;;;16.98;4.60;;;;;;;30.01;36.66;95020.41;2975430;39;20339;-82
2021/06/24 08:42:17;;;;;;;19.65;3.88;;;;;;;30.28;36.58;95018.44;2968519;39;20295;-81
2021/06/24 08:44:19;;;;;;;15.45;4.43;;;;;;;30.54;36.72;95019.97;2975351;39;20103;-81
2021/06/24 08:46:26;;;;;;;16.15;4.45;;;;;;;30.53;36.52;95018.34;2976305;40;20136;-83
2021/06/24 08:48:33;;;;;;;16.23;4.72;;;;;;;30.60;37.11;95015.34;2976489;39;20069;-82
2021/06/24 08:50:36;;;;;;;16.88;4.63;;;;;;;30.69;37.63;95015.56;2975856;40;20055;-84
2021/06/24 08:52:38;;;;;;;20.52;6.35;;;;;;;30.87;37.69;95006.03;2974208;39;20096;-71
2021/06/24 08:54:39;;;;;;;11.38;4.90;;;;;;;31.07;37.57;95002.41;2972033;39;20358;-73
2021/06/24 08:56:41;;;;;;;21.92;5.85;;;;;;;31.20;37.66;95001.78;2974066;39;20088;-72
2021/06/24 08:58:44;;;;;;;17.98;6.07;;;;;;;31.27;37.34;95001.44;2977486;39;20093;-72
2021/06/24 09:00:47;;;;;;;17.88;5.85;;;;;;;31.14;37.55;95000.19;2972579;39;20063;-73
2021/06/24 09:02:51;;;;;;;18.10;5.72;;;;;;;30.93;37.56;94999.50;2971697;39;20055;-73
2021/06/24 09:04:53;;;;;;;25.92;7.43;;;;;;;30.98;37.75;95007.63;2968040;40;20177;-79
2021/06/24 09:07:07;;;;;;;19.50;5.18;;;;;;;30.96;37.13;95002.47;2974026;39;20052;-83
2021/06/24 09:09:09;;;;;;;21.50;6.10;;;;;;;30.96;37.51;95007.09;2975885;39;20416;-81
2021/06/24 09:11:15;;;;;;;18.52;5.55;;;;;;;30.88;37.25;95011.19;2974651;39;20048;-83
2021/06/24 09:13:25;;;;;;;17.55;5.20;;;;;;;30.97;36.69;95005.97;2975223;39;20056;-81
2021/06/24 09:15:36;;;;;;;14.60;5.35;;;;;;;30.76;36.71;95000.69;2973828;39;20156;-83
2021/06/24 09:17:38;;;;;;;21.02;4.60;;;;;;;30.92;36.07;94996.00;2974996;39;20067;-82
2021/06/24 09:19:42;;;;;;;14.43;4.45;;;;;;;30.98;35.31;95000.31;2974583;39;20051;-83
2021/06/24 09:22:01;;;;;;;12.95;4.78;;;;;;;31.18;35.14;94998.53;2982077;39;20067;-82
2021/06/24 09:24:19;;;;;;;18.33;4.03;;;;;;;31.19;33.72;95000.13;2973954;39;20064;-81
2021/06/24 09:26:21;;;;;;;16.77;4.40;;;;;;;31.12;32.59;95005.06;2973891;40;20048;-82
2021/06/24 09:28:39;;;;;;;23.83;5.22;;;;;;;31.28;33.34;94998.47;2974734;39;20040;-81
2021/06/24 09:30:42;;;;;;;14.95;4.07;;;;;;;31.41;32.14;94999.72;2975844;39;20140;-81